หน้าหลัก
METAR-TAF:

METAR-TAF

ท่าอากาศยาน :

Brown Field Municipal Airport

แซนดีเอโก, แคลิฟอร์เนีย, สหรัฐอเมริกา

ละติจูด: 32-34-31N, ลองจิจูด: 116-59-35W, ความสูง: 164 ม.

การสังเกตสภาพอากาศปัจจุบัน

รายงานได้ทำขึ้นเมื่อ 33 นาทีที่แล้ว ณ เวลา 10:24 UTC
ลม 3 นอตจากทิศทางซึ่งแปรผันได้
อุณหภูมิ 19°C
ความชื้น 88%
ความกดอากาศ 1017 hPa
ทัศนวิสัย: 16.1 กม.
มีเมฆมาก มืดครึ้มที่ความสูง 600 ฟุต

METAR: KSDM 151024Z AUTO VRB03KT 10SM OVC006 19/17 A3002 RMK AO2 T01890172

เวลา: 03:57 (10:57 UTC)


TAF: หายไป

สังเกตการณ์สภาพอากาศและพยากรณ์อากาศของสนามบินมากกว่า 4000 แห่ง (รายงาน METAR และ TAF).

สถานีที่ดูได้จะแสดงไว้ด้วยจุดสีเหลืองและสีแดงบนแผนที่.

เลื่อนเมาส์ไปเหนือจุดเพื่อดูชื่อสถานี.

แล้วคลิกเพื่อดูสังเกตการณ์และการพยากรณ์สภาพอากาศ.

ในการเปลี่ยนแผนที่: คลิกที่ปุ่มสีเขียวที่มีกากบาทสีดำเพื่อซูมเข้า; ที่ปุ่มสีเขียวที่มีขีดเพื่อซูมออก; หรือที่ลูกศรสีเขียวเพื่อไปยังแผนที่ที่อยู่ติดกัน.


METAR-TAF: